Petersburg, New York
Current Conditions -  °F | °C
As of 10:52 AM on Tuesday 21 Oct 2014 (Local Time) from KAQW Reporting Station
Light Rain Light Rain  
Wind Chill: 47°   Ceiling: 4700
Heat Index: 49°   Visibility: 10mi
Dew Point: 45°   Wind: 6mph
Humidity: 86%   Direction: 80°E
Pressure: 29.94"   Gusts: NA
Location:  42.75°N, 73.35°W
Report Text: KAQW 211452Z AUTO 08005KT 10SM -RA BKN047 OVC055 09/07 A2994 RMK AO2 SLP142 P0001 60005 T00940072 50002
Loading
Personal Weather Stations






























Interactive Weather Map
Tropical Storm Tracking
New forecast layout! Learn more

10-Day Weather Forecast

Advertisements
Track Severe Weather on mobile